createdAt,value
2019-02-02T00:03:55.885Z,14.73
2019-02-02T00:06:26.432Z,13.80
2019-02-02T00:12:17.088Z,13.80
2019-02-02T00:14:59.156Z,16.23
2019-02-02T00:17:41.523Z,12.23
2019-02-02T00:20:12.224Z,15.60
2019-02-02T00:26:10.083Z,15.03
2019-02-02T00:28:40.468Z,15.37
2019-02-02T00:31:22.696Z,15.13
2019-02-02T00:34:05.357Z,14.70
2019-02-02T00:36:47.545Z,13.80
2019-02-02T00:39:29.707Z,15.17
2019-02-02T00:42:11.869Z,15.20
2019-02-02T00:44:53.113Z,15.93
2019-02-02T00:47:34.878Z,15.37
2019-02-02T00:50:17.214Z,17.23
2019-02-02T00:53:01.210Z,20.57
2019-02-02T00:55:44.689Z,20.93
2019-02-02T00:58:26.573Z,19.27
2019-02-02T01:01:09.209Z,17.60
2019-02-02T01:03:52.229Z,19.83
2019-02-02T01:06:34.477Z,18.10
2019-02-02T01:09:22.678Z,18.10
2019-02-02T01:12:05.231Z,18.40
2019-02-02T01:14:47.438Z,18.50
2019-02-02T01:17:28.912Z,20.03
2019-02-02T01:19:59.449Z,20.40
2019-02-02T01:23:08.786Z,20.63
2019-02-02T01:25:51.224Z,19.43
2019-02-02T01:28:33.385Z,23.50
2019-02-02T01:31:15.390Z,22.50
2019-02-02T01:33:57.740Z,23.43
2019-02-02T01:36:28.350Z,22.80
2019-02-02T01:39:17.832Z,24.87
2019-02-02T01:42:00.214Z,21.07
2019-02-02T01:44:42.433Z,26.30
2019-02-02T01:47:13.192Z,24.10
2019-02-02T01:50:02.764Z,26.37
2019-02-02T01:52:44.802Z,20.47
2019-02-02T01:55:27.122Z,23.77
2019-02-02T01:58:16.443Z,24.90
2019-02-02T02:01:00.332Z,23.73
2019-02-02T02:03:42.494Z,27.97
2019-02-02T02:06:24.862Z,24.43
2019-02-02T02:14:48.989Z,28.93
2019-02-02T02:17:19.463Z,27.10
2019-02-02T02:19:50.054Z,24.10
2019-02-02T02:22:40.942Z,25.63
2019-02-02T02:25:16.813Z,27.23
2019-02-02T02:27:58.449Z,25.27
2019-02-02T02:30:41.082Z,31.27
2019-02-02T02:33:22.949Z,26.80
2019-02-02T02:36:04.897Z,25.77
2019-02-02T02:38:46.916Z,28.57
2019-02-02T02:41:29.259Z,29.97
2019-02-02T02:44:11.898Z,30.17
2019-02-02T02:46:53.901Z,30.47
2019-02-02T02:49:24.436Z,30.30
2019-02-02T02:55:15.590Z,32.13
2019-02-02T02:57:58.464Z,30.33
2019-02-02T03:06:19.652Z,33.13
2019-02-02T03:12:02.178Z,32.37
2019-02-02T03:14:44.493Z,28.13
2019-02-02T03:17:26.834Z,30.63
2019-02-02T03:20:08.506Z,31.50
2019-02-02T03:25:49.650Z,30.97
2019-02-02T03:28:32.142Z,34.43
2019-02-02T03:31:14.546Z,32.57
2019-02-02T03:33:55.642Z,35.63
2019-02-02T03:36:37.870Z,31.77
2019-02-02T03:39:20.430Z,31.57
2019-02-02T03:42:03.474Z,30.87
2019-02-02T03:44:45.803Z,32.70
2019-02-02T03:47:27.573Z,34.73
2019-02-02T03:50:09.605Z,35.53
2019-02-02T03:52:51.835Z,36.23
2019-02-02T03:55:34.377Z,39.10
2019-02-02T03:58:16.698Z,36.23
2019-02-02T04:00:58.662Z,31.97
2019-02-02T04:03:42.026Z,35.00
2019-02-02T04:09:27.521Z,32.97
2019-02-02T04:12:09.950Z,37.13
2019-02-02T04:14:51.737Z,31.90
2019-02-02T04:17:34.173Z,34.63
2019-02-02T04:20:25.576Z,33.93
2019-02-02T04:23:08.133Z,32.97
2019-02-02T04:25:49.824Z,34.23
2019-02-02T04:28:32.107Z,35.27
2019-02-02T04:31:14.328Z,34.67
2019-02-02T04:33:56.318Z,33.17
2019-02-02T04:36:38.261Z,31.23
2019-02-02T04:39:20.713Z,32.23
2019-02-02T04:42:02.752Z,35.63
2019-02-02T04:44:44.936Z,33.50
2019-02-02T04:47:27.218Z,36.67
2019-02-02T04:50:09.318Z,32.70
2019-02-02T04:52:51.866Z,33.73
2019-02-02T04:55:34.047Z,33.40
2019-02-02T04:58:16.478Z,33.23
2019-02-02T05:00:58.393Z,32.83
2019-02-02T05:03:29.008Z,32.43
2019-02-02T05:06:18.594Z,34.47
2019-02-02T05:09:02.238Z,33.40
2019-02-02T05:11:45.203Z,32.43
2019-02-02T05:14:27.455Z,34.90
2019-02-02T05:17:09.648Z,32.20
2019-02-02T05:22:51.091Z,31.57
2019-02-02T05:25:33.775Z,30.87
2019-02-02T05:28:04.373Z,33.63
2019-02-02T05:30:46.425Z,32.47
2019-02-02T05:33:28.445Z,31.33
2019-02-02T05:36:10.735Z,34.23
2019-02-02T05:38:52.547Z,33.50
2019-02-02T05:41:34.837Z,29.73
2019-02-02T05:44:17.844Z,30.90
2019-02-02T05:46:59.658Z,33.77
2019-02-02T05:49:30.275Z,29.20
2019-02-02T05:52:19.816Z,29.27
2019-02-02T05:55:01.969Z,31.37
2019-02-02T05:57:43.746Z,31.47
2019-02-02T06:03:28.965Z,32.27
2019-02-02T06:06:11.438Z,30.97
2019-02-02T06:08:53.481Z,29.03
2019-02-02T06:11:35.598Z,26.80
2019-02-02T06:14:06.181Z,28.97
2019-02-02T06:19:56.412Z,29.20
2019-02-02T06:22:39.543Z,29.00
2019-02-02T06:25:21.362Z,27.80
2019-02-02T06:28:03.458Z,33.23
2019-02-02T06:30:35.821Z,26.83
2019-02-02T06:33:06.301Z,25.97
2019-02-02T06:35:48.689Z,30.33
2019-02-02T06:38:30.889Z,31.97
2019-02-02T06:41:14.461Z,31.77
2019-02-02T06:43:56.732Z,29.20
2019-02-02T06:46:43.582Z,29.67
2019-02-02T06:49:23.211Z,28.50
2019-02-02T06:52:05.543Z,27.23
2019-02-02T06:54:47.764Z,28.33
2019-02-02T06:57:29.924Z,28.53
2019-02-02T07:00:16.230Z,31.10
2019-02-02T07:02:55.737Z,28.50
2019-02-02T07:05:37.819Z,29.70
2019-02-02T07:08:20.367Z,27.97
2019-02-02T07:11:03.042Z,26.00
2019-02-02T07:13:45.803Z,26.70
2019-02-02T07:16:18.853Z,26.97
2019-02-02T07:19:01.169Z,27.07
2019-02-02T07:21:43.033Z,29.63
2019-02-02T07:24:25.577Z,29.03
2019-02-02T07:27:07.667Z,26.60
2019-02-02T07:29:49.740Z,26.70
2019-02-02T07:32:31.883Z,25.87
2019-02-02T07:35:15.621Z,25.87
2019-02-02T07:37:46.068Z,27.97
2019-02-02T07:40:34.470Z,25.33
2019-02-02T07:43:16.393Z,26.17
2019-02-02T07:45:58.325Z,27.07
2019-02-02T07:48:40.487Z,27.50
2019-02-02T07:51:22.845Z,31.27
2019-02-02T07:54:06.050Z,28.63
2019-02-02T07:56:48.261Z,26.73
2019-02-02T07:59:30.796Z,27.60
2019-02-02T08:02:13.059Z,26.00
2019-02-02T08:04:57.563Z,28.47
2019-02-02T08:07:40.257Z,23.83
2019-02-02T08:10:22.650Z,27.03
2019-02-02T08:13:04.826Z,27.57
2019-02-02T08:15:46.806Z,28.23
2019-02-02T08:18:28.466Z,28.43
2019-02-02T08:21:10.246Z,29.40
2019-02-02T08:23:52.293Z,29.73
2019-02-02T08:26:34.240Z,27.23
2019-02-02T08:29:19.309Z,28.40
2019-02-02T08:32:00.990Z,27.20
2019-02-02T08:34:43.093Z,27.37
2019-02-02T08:37:25.360Z,26.50
2019-02-02T08:40:07.828Z,26.87
2019-02-02T08:42:50.070Z,24.83
2019-02-02T08:45:32.141Z,26.43
2019-02-02T08:48:14.746Z,27.47
2019-02-02T08:50:56.995Z,27.83
2019-02-02T08:53:39.257Z,29.87
2019-02-02T08:56:21.590Z,28.53
2019-02-02T08:59:03.891Z,27.53
2019-02-02T09:01:48.186Z,29.03
2019-02-02T09:04:30.822Z,26.40
2019-02-02T09:07:12.971Z,27.93
2019-02-02T09:09:54.824Z,30.73
2019-02-02T09:12:37.015Z,27.23
2019-02-02T09:15:20.919Z,25.10
2019-02-02T09:18:03.269Z,25.57
2019-02-02T09:20:45.215Z,30.37
2019-02-02T09:23:27.724Z,26.83
2019-02-02T09:26:09.904Z,26.53
2019-02-02T09:28:51.900Z,26.10
2019-02-02T09:31:33.942Z,25.40
2019-02-02T09:34:17.678Z,27.40
2019-02-02T09:36:59.823Z,25.67
2019-02-02T09:39:41.652Z,27.73
2019-02-02T09:42:23.834Z,26.53
2019-02-02T09:45:06.592Z,24.97
2019-02-02T09:47:48.512Z,25.27
2019-02-02T09:50:30.927Z,25.93
2019-02-02T09:56:31.597Z,26.77
2019-02-02T09:59:09.765Z,28.27
2019-02-02T10:01:51.289Z,26.63
2019-02-02T10:04:33.603Z,26.90
2019-02-02T10:07:15.788Z,27.93
2019-02-02T10:09:57.801Z,27.57
2019-02-02T10:12:39.949Z,26.27
2019-02-02T10:15:22.376Z,28.80
2019-02-02T10:18:04.168Z,27.67
2019-02-02T10:20:46.191Z,27.03
2019-02-02T10:23:28.435Z,29.37
2019-02-02T10:26:12.477Z,26.60
2019-02-02T10:28:54.844Z,26.40
2019-02-02T10:31:39.660Z,29.37
2019-02-02T10:34:21.552Z,29.27
2019-02-02T10:37:05.953Z,28.13
2019-02-02T10:39:48.360Z,27.93
2019-02-02T10:45:13.044Z,32.30
2019-02-02T10:47:54.752Z,30.13
2019-02-02T10:50:36.918Z,28.63
2019-02-02T10:53:19.942Z,27.57
2019-02-02T10:56:02.861Z,27.10
2019-02-02T10:58:44.972Z,24.83
2019-02-02T11:01:26.672Z,27.57
2019-02-02T11:04:10.113Z,25.97
2019-02-02T11:06:52.215Z,28.73
2019-02-02T11:09:34.912Z,26.13
2019-02-02T11:12:17.188Z,28.87
2019-02-02T11:14:59.572Z,27.33
2019-02-02T11:17:41.304Z,27.40
2019-02-02T11:20:23.659Z,27.40
2019-02-02T11:22:54.556Z,28.87
2019-02-02T11:25:36.831Z,24.73
2019-02-02T11:28:19.042Z,28.73
2019-02-02T11:31:00.876Z,24.97
2019-02-02T11:33:44.385Z,23.87
2019-02-02T11:36:26.536Z,26.50
2019-02-02T11:39:08.853Z,25.77
2019-02-02T11:41:39.165Z,25.30
2019-02-02T11:44:30.236Z,25.63
2019-02-02T11:47:11.919Z,26.23
2019-02-02T11:49:54.265Z,23.27
2019-02-02T11:52:36.361Z,25.47
2019-02-02T11:55:18.784Z,23.27
2019-02-02T11:58:01.083Z,25.27
2019-02-02T12:00:43.491Z,23.53
2019-02-02T12:03:25.795Z,24.87
2019-02-02T12:06:08.044Z,22.10
2019-02-02T12:11:49.204Z,26.33
2019-02-02T12:14:30.904Z,23.30
2019-02-02T12:17:13.168Z,22.33
2019-02-02T12:19:55.388Z,22.93
2019-02-02T12:22:37.567Z,22.83
2019-02-02T12:25:08.231Z,24.07
2019-02-02T12:27:50.152Z,25.30
2019-02-02T12:30:32.123Z,22.73
2019-02-02T12:33:14.372Z,23.67
2019-02-02T12:35:56.651Z,21.33
2019-02-02T12:38:39.114Z,21.53
2019-02-02T12:41:21.416Z,20.03
2019-02-02T12:44:03.720Z,18.70
2019-02-02T12:46:45.852Z,22.60
2019-02-02T12:49:27.962Z,23.53
2019-02-02T12:52:10.053Z,21.83
2019-02-02T12:54:52.057Z,21.90
2019-02-02T12:57:34.333Z,21.60
2019-02-02T13:00:16.178Z,21.97
2019-02-02T13:02:58.430Z,22.73
2019-02-02T13:05:40.787Z,25.57
2019-02-02T13:08:22.369Z,21.93
2019-02-02T13:11:04.473Z,24.87
2019-02-02T13:13:46.776Z,24.23
2019-02-02T13:16:29.460Z,20.07
2019-02-02T13:19:13.847Z,21.63
2019-02-02T13:21:55.161Z,22.23
2019-02-02T13:24:25.647Z,22.73
2019-02-02T13:26:56.233Z,22.40
2019-02-02T13:29:38.088Z,21.30
2019-02-02T13:32:19.816Z,21.77
2019-02-02T13:35:01.384Z,20.07
2019-02-02T13:37:32.164Z,22.50
2019-02-02T13:40:14.688Z,21.73
2019-02-02T13:42:56.709Z,20.97
2019-02-02T13:45:38.495Z,22.70
2019-02-02T13:48:20.866Z,22.87
2019-02-02T13:51:05.832Z,22.73
2019-02-02T13:53:46.724Z,26.57
2019-02-02T13:56:17.205Z,22.40
2019-02-02T13:59:06.756Z,21.07
2019-02-02T14:01:48.566Z,24.07
2019-02-02T14:04:30.892Z,20.77
2019-02-02T14:07:18.292Z,23.90
2019-02-02T14:09:57.079Z,22.03
2019-02-02T14:12:39.394Z,22.30
2019-02-02T14:15:21.556Z,21.93
2019-02-02T14:18:04.018Z,21.33
2019-02-02T14:20:34.615Z,22.37
2019-02-02T14:23:24.209Z,19.23
2019-02-02T14:26:06.834Z,26.10
2019-02-02T14:28:37.316Z,21.63
2019-02-02T14:31:26.797Z,24.07
2019-02-02T14:34:08.701Z,23.23
2019-02-02T14:36:50.697Z,24.37
2019-02-02T14:39:33.182Z,19.57
2019-02-02T14:42:18.284Z,22.50
2019-02-02T14:44:59.648Z,22.87
2019-02-02T14:47:41.916Z,20.97
2019-02-02T14:50:23.907Z,18.63
2019-02-02T14:53:08.517Z,23.83
2019-02-02T14:55:50.893Z,23.10
2019-02-02T14:58:43.979Z,20.47
2019-02-02T15:01:25.658Z,20.63
2019-02-02T15:04:08.262Z,20.27
2019-02-02T15:06:50.368Z,21.67
2019-02-02T15:09:33.212Z,22.73
2019-02-02T15:12:14.469Z,23.13
2019-02-02T15:14:55.448Z,22.30
2019-02-02T15:17:37.361Z,23.53
2019-02-02T15:20:22.167Z,23.20
2019-02-02T15:23:03.628Z,20.27
2019-02-02T15:25:34.661Z,23.43
2019-02-02T15:28:24.044Z,20.57
2019-02-02T15:31:06.290Z,21.97
2019-02-02T15:33:47.858Z,22.53
2019-02-02T15:36:30.189Z,21.70
2019-02-02T15:39:12.488Z,20.20
2019-02-02T15:41:54.951Z,20.30
2019-02-02T15:44:37.313Z,22.67
2019-02-02T15:47:19.180Z,20.60
2019-02-02T15:50:00.916Z,22.80
2019-02-02T15:52:44.582Z,18.80
2019-02-02T15:55:26.696Z,21.27
2019-02-02T15:58:09.033Z,21.27
2019-02-02T16:00:51.749Z,21.13
2019-02-02T16:03:35.813Z,18.40
2019-02-02T16:06:17.704Z,21.10
2019-02-02T16:08:59.920Z,21.10
2019-02-02T16:11:31.759Z,20.00
2019-02-02T16:14:14.249Z,19.90
2019-02-02T16:16:56.017Z,23.80
2019-02-02T16:19:38.402Z,21.23
2019-02-02T16:22:21.754Z,22.10
2019-02-02T16:25:03.664Z,19.77
2019-02-02T16:27:45.533Z,18.73
2019-02-02T16:30:27.933Z,20.03
2019-02-02T16:33:11.164Z,18.77
2019-02-02T16:35:53.508Z,19.17
2019-02-02T16:38:34.171Z,19.30
2019-02-02T16:41:17.242Z,19.73
2019-02-02T16:44:00.513Z,19.50
2019-02-02T16:46:42.453Z,20.67
2019-02-02T16:49:24.748Z,21.77
2019-02-02T16:52:07.143Z,20.97
2019-02-02T16:54:48.965Z,19.83
2019-02-02T16:57:30.654Z,21.57
2019-02-02T17:00:12.778Z,22.00
2019-02-02T17:05:51.194Z,22.90
2019-02-02T17:08:33.210Z,23.97
2019-02-02T17:11:15.337Z,21.13
2019-02-02T17:13:59.204Z,22.90
2019-02-02T17:16:41.370Z,22.83
2019-02-02T17:19:24.404Z,22.17
2019-02-02T17:22:06.040Z,23.97
2019-02-02T17:24:48.045Z,24.70
2019-02-02T17:27:30.441Z,26.87
2019-02-02T17:30:13.490Z,21.60
2019-02-02T17:32:44.076Z,23.37
2019-02-02T17:35:26.276Z,19.30
2019-02-02T17:38:07.924Z,18.10
2019-02-02T17:40:50.048Z,19.97
2019-02-02T17:43:32.294Z,18.80
2019-02-02T17:46:14.709Z,19.07
2019-02-02T17:48:45.308Z,20.17
2019-02-02T17:51:27.969Z,18.73
2019-02-02T17:54:10.189Z,19.63
2019-02-02T17:56:52.449Z,21.97
2019-02-02T17:59:34.351Z,18.10
2019-02-02T18:02:16.641Z,19.70
2019-02-02T18:05:00.566Z,18.97
2019-02-02T18:07:43.325Z,21.90
2019-02-02T18:10:25.549Z,18.77
2019-02-02T18:13:07.646Z,19.50
2019-02-02T18:15:49.872Z,19.13
2019-02-02T18:18:31.082Z,18.43
2019-02-02T18:21:12.148Z,17.83
2019-02-02T18:23:54.477Z,17.43
2019-02-02T18:26:24.926Z,19.00
2019-02-02T18:29:14.592Z,17.30
2019-02-02T18:32:12.898Z,16.27
2019-02-02T18:34:53.109Z,17.20
2019-02-02T18:37:35.137Z,17.23
2019-02-02T18:40:16.881Z,17.00
2019-02-02T18:42:59.156Z,17.70
2019-02-02T18:45:41.272Z,17.83
2019-02-02T18:48:24.145Z,16.87
2019-02-02T18:54:04.901Z,18.20
2019-02-02T18:56:47.244Z,17.20
2019-02-02T18:59:29.660Z,17.90
2019-02-02T19:02:11.663Z,18.43
2019-02-02T19:05:03.329Z,17.87
2019-02-02T19:07:26.086Z,14.70
2019-02-02T19:10:16.828Z,17.37
2019-02-02T19:12:47.552Z,16.73
2019-02-02T19:15:29.551Z,16.20
2019-02-02T19:18:11.578Z,15.00
2019-02-02T19:20:53.704Z,16.40
2019-02-02T19:23:36.032Z,15.40
2019-02-02T19:26:18.684Z,15.90
2019-02-02T19:29:00.721Z,14.80
2019-02-02T19:31:42.457Z,15.10
2019-02-02T19:34:23.552Z,15.77
2019-02-02T19:37:05.342Z,12.77
2019-02-02T19:39:47.818Z,15.20
2019-02-02T19:42:31.432Z,14.40
2019-02-02T19:45:14.665Z,14.73
2019-02-02T19:47:56.352Z,13.37
2019-02-02T19:50:38.288Z,14.53
2019-02-02T19:53:20.793Z,15.40
2019-02-02T19:56:02.821Z,13.93
2019-02-02T19:58:46.886Z,13.53
2019-02-02T20:01:28.322Z,14.23
2019-02-02T20:04:10.497Z,11.20
2019-02-02T20:06:52.826Z,12.03
2019-02-02T20:09:35.176Z,12.57
2019-02-02T20:12:17.495Z,11.33
2019-02-02T20:14:59.357Z,11.47
2019-02-02T20:17:41.374Z,11.13
2019-02-02T20:20:23.884Z,9.93
2019-02-02T20:23:06.159Z,11.87
2019-02-02T20:25:49.485Z,10.87
2019-02-02T20:28:31.240Z,11.47
2019-02-02T20:31:13.215Z,9.33
2019-02-02T20:33:55.380Z,8.70
2019-02-02T20:36:25.961Z,9.30
2019-02-02T20:39:15.430Z,8.23
2019-02-02T20:41:59.858Z,8.83
2019-02-02T20:44:40.878Z,8.93
2019-02-02T20:47:22.937Z,9.70
2019-02-02T20:50:04.996Z,11.57
2019-02-02T20:52:47.938Z,9.20
2019-02-02T20:55:30.469Z,9.67
2019-02-02T20:58:12.833Z,10.47
2019-02-02T21:00:55.065Z,9.17
2019-02-02T21:03:37.677Z,8.37
2019-02-02T21:06:19.366Z,10.53
2019-02-02T21:09:01.762Z,10.50
2019-02-02T21:11:56.370Z,7.97
2019-02-02T21:14:29.709Z,8.50
2019-02-02T21:17:11.769Z,8.77
2019-02-02T21:19:53.954Z,9.37
2019-02-02T21:22:35.724Z,8.30
2019-02-02T21:25:18.354Z,7.17
2019-02-02T21:28:00.416Z,6.57
2019-02-02T21:30:42.659Z,7.27
2019-02-02T21:33:24.772Z,7.83
2019-02-02T21:36:07.125Z,7.53
2019-02-02T21:38:49.216Z,7.53
2019-02-02T21:41:32.645Z,6.60
2019-02-02T21:44:14.558Z,6.40
2019-02-02T21:46:56.749Z,7.37
2019-02-02T21:49:39.110Z,6.87
2019-02-02T21:52:21.070Z,5.53
2019-02-02T21:55:03.383Z,6.83
2019-02-02T21:57:45.522Z,7.00
2019-02-02T22:00:27.766Z,6.10
2019-02-02T22:03:10.184Z,6.37
2019-02-02T22:05:52.674Z,6.30
2019-02-02T22:08:35.344Z,6.67
2019-02-02T22:11:17.150Z,5.77
2019-02-02T22:13:59.269Z,7.77
2019-02-02T22:16:41.741Z,8.03
2019-02-02T22:19:24.001Z,7.53
2019-02-02T22:22:06.436Z,7.40
2019-02-02T22:24:48.809Z,6.67
2019-02-02T22:27:30.904Z,6.77
2019-02-02T22:30:13.689Z,6.03
2019-02-02T22:32:55.517Z,7.10
2019-02-02T22:35:37.638Z,6.50
2019-02-02T22:38:20.807Z,7.53
2019-02-02T22:41:03.078Z,6.97
2019-02-02T22:43:45.388Z,6.63
2019-02-02T22:46:27.485Z,7.50
2019-02-02T22:49:10.379Z,7.50
2019-02-02T22:51:52.369Z,7.43
2019-02-02T22:54:34.548Z,8.47
2019-02-02T22:57:16.324Z,7.73
2019-02-02T22:59:58.639Z,8.20
2019-02-02T23:02:40.401Z,8.57
2019-02-02T23:05:22.625Z,10.43
2019-02-02T23:08:05.007Z,9.20
2019-02-02T23:10:46.441Z,8.70
2019-02-02T23:13:28.568Z,8.97
2019-02-02T23:16:13.131Z,9.97
2019-02-02T23:18:57.927Z,8.97
2019-02-02T23:21:40.569Z,9.57
2019-02-02T23:24:22.688Z,10.13
2019-02-02T23:27:04.614Z,8.97
2019-02-02T23:29:47.705Z,8.97
2019-02-02T23:32:31.840Z,8.97
2019-02-02T23:35:14.091Z,8.63
2019-02-02T23:37:56.554Z,8.93
2019-02-02T23:40:39.037Z,8.27
2019-02-02T23:43:21.035Z,7.77
2019-02-02T23:46:03.396Z,9.13
2019-02-02T23:48:45.694Z,8.57
2019-02-02T23:51:27.681Z,7.80
2019-02-02T23:54:09.796Z,8.63
2019-02-02T23:56:51.788Z,8.17
2019-02-02T23:59:35.258Z,8.80
